createdAt,value
2023-05-05T00:00:28.685Z,86.00
2023-05-05T00:02:57.245Z,85.90
2023-05-05T00:05:25.826Z,85.90
2023-05-05T00:07:53.721Z,86.00
2023-05-05T00:10:21.427Z,85.40
2023-05-05T00:12:49.377Z,85.20
2023-05-05T00:15:17.533Z,85.00
2023-05-05T00:17:45.517Z,85.20
2023-05-05T00:20:13.575Z,85.10
2023-05-05T00:22:41.320Z,85.10
2023-05-05T00:25:09.610Z,85.30
2023-05-05T00:27:40.170Z,84.90
2023-05-05T00:30:08.949Z,83.80
2023-05-05T00:32:37.547Z,83.40
2023-05-05T00:35:05.818Z,83.20
2023-05-05T00:37:35.290Z,83.10
2023-05-05T00:40:05.610Z,82.80
2023-05-05T00:42:37.697Z,82.60
2023-05-05T00:45:08.112Z,82.50
2023-05-05T00:47:36.761Z,82.20
2023-05-05T00:50:06.837Z,81.80
2023-05-05T00:52:39.815Z,82.10
2023-05-05T00:55:08.088Z,81.80
2023-05-05T00:57:38.921Z,82.10
2023-05-05T01:00:07.413Z,82.00
2023-05-05T01:02:37.042Z,81.90
2023-05-05T01:05:17.763Z,81.90
2023-05-05T01:07:46.388Z,81.40
2023-05-05T01:10:20.398Z,81.20
2023-05-05T01:12:51.353Z,80.30
2023-05-05T01:15:20.069Z,79.90
2023-05-05T01:17:48.408Z,79.80
2023-05-05T01:20:17.466Z,79.80
2023-05-05T01:22:45.528Z,79.40
2023-05-05T01:25:13.803Z,79.40
2023-05-05T01:27:42.212Z,79.20
2023-05-05T01:30:12.518Z,79.00
2023-05-05T01:32:40.481Z,78.10
2023-05-05T01:35:10.770Z,78.50
2023-05-05T01:37:38.712Z,78.00
2023-05-05T01:40:07.911Z,77.20
2023-05-05T01:42:36.218Z,77.20
2023-05-05T01:45:18.211Z,77.20
2023-05-05T01:47:54.920Z,76.20
2023-05-05T01:50:23.116Z,76.40
2023-05-05T01:52:51.444Z,77.30
2023-05-05T01:55:19.529Z,76.40
2023-05-05T01:57:47.576Z,75.10
2023-05-05T02:00:15.295Z,74.80
2023-05-05T02:02:44.321Z,74.50
2023-05-05T02:05:12.348Z,74.80
2023-05-05T02:07:40.340Z,74.60
2023-05-05T02:13:00.075Z,72.90
2023-05-05T02:15:29.735Z,72.90
2023-05-05T02:17:59.551Z,71.70
2023-05-05T02:20:29.526Z,72.30
2023-05-05T02:22:58.421Z,71.60
2023-05-05T02:25:26.549Z,71.30
2023-05-05T02:27:54.605Z,71.20
2023-05-05T02:30:23.185Z,71.70
2023-05-05T02:32:52.121Z,70.60
2023-05-05T02:35:19.820Z,70.00
2023-05-05T02:37:48.126Z,71.40
2023-05-05T02:40:16.062Z,69.40
2023-05-05T02:42:44.711Z,69.30
2023-05-05T02:45:12.992Z,70.00
2023-05-05T02:47:40.849Z,68.80
2023-05-05T02:50:08.966Z,67.80
2023-05-05T02:52:37.684Z,67.60
2023-05-05T02:55:05.579Z,68.20
2023-05-05T02:57:33.757Z,67.50
2023-05-05T03:00:02.054Z,66.60
2023-05-05T03:02:32.415Z,65.90
2023-05-05T03:05:00.232Z,66.30
2023-05-05T03:07:27.999Z,66.60
2023-05-05T03:09:55.689Z,66.00
2023-05-05T03:12:23.969Z,65.80
2023-05-05T03:14:51.766Z,65.90
2023-05-05T03:17:19.336Z,66.10
2023-05-05T03:19:47.152Z,65.40
2023-05-05T03:22:15.104Z,64.50
2023-05-05T03:24:42.757Z,64.80
2023-05-05T03:27:10.804Z,64.20
2023-05-05T03:29:38.588Z,64.90
2023-05-05T03:32:06.566Z,65.10
2023-05-05T03:37:17.323Z,64.00
2023-05-05T03:39:45.458Z,61.70
2023-05-05T03:42:13.839Z,62.70
2023-05-05T03:44:42.365Z,63.30
2023-05-05T03:47:10.350Z,62.30
2023-05-05T03:49:38.216Z,61.60
2023-05-05T03:52:06.222Z,62.80
2023-05-05T03:54:34.402Z,63.10
2023-05-05T03:57:02.324Z,59.80
2023-05-05T03:59:30.216Z,59.80
2023-05-05T04:01:58.041Z,60.10
2023-05-05T04:04:25.958Z,59.50
2023-05-05T04:06:53.862Z,58.30
2023-05-05T04:09:22.448Z,57.60
2023-05-05T04:11:50.315Z,57.20
2023-05-05T04:14:18.426Z,58.80
2023-05-05T04:16:47.066Z,58.10
2023-05-05T04:19:14.930Z,57.60
2023-05-05T04:21:42.839Z,57.10
2023-05-05T04:24:10.462Z,57.90
2023-05-05T04:26:38.678Z,57.70
2023-05-05T04:29:07.148Z,57.80
2023-05-05T04:31:35.097Z,58.10
2023-05-05T04:34:02.838Z,56.80
2023-05-05T04:36:30.801Z,56.60
2023-05-05T04:38:59.419Z,57.40
2023-05-05T04:41:29.471Z,56.30
2023-05-05T04:43:58.243Z,55.80
2023-05-05T04:46:26.540Z,55.90
2023-05-05T04:48:54.532Z,56.50
2023-05-05T04:51:22.259Z,56.90
2023-05-05T04:53:50.271Z,55.20
2023-05-05T04:56:18.123Z,55.30
2023-05-05T04:58:46.172Z,55.10
2023-05-05T05:01:13.779Z,54.90
2023-05-05T05:03:41.533Z,54.80
2023-05-05T05:06:09.555Z,55.10
2023-05-05T05:08:37.680Z,55.30
2023-05-05T05:11:05.719Z,53.90
2023-05-05T05:13:33.737Z,54.70
2023-05-05T05:16:01.527Z,52.70
2023-05-05T05:18:29.292Z,52.50
2023-05-05T05:20:58.282Z,52.60
2023-05-05T05:23:35.882Z,51.50
2023-05-05T05:26:03.750Z,51.20
2023-05-05T05:28:33.249Z,51.50
2023-05-05T05:31:01.216Z,51.60
2023-05-05T05:33:29.322Z,53.40
2023-05-05T05:35:57.433Z,54.20
2023-05-05T05:38:25.602Z,53.90
2023-05-05T05:40:53.891Z,52.90
2023-05-05T05:43:21.695Z,53.30
2023-05-05T05:45:49.553Z,53.10
2023-05-05T05:48:17.860Z,53.70
2023-05-05T05:50:46.231Z,53.70
2023-05-05T05:53:14.222Z,53.10
2023-05-05T05:55:42.358Z,52.00
2023-05-05T05:58:10.098Z,52.10
2023-05-05T06:00:39.632Z,51.80
2023-05-05T06:03:08.172Z,51.30
2023-05-05T06:05:36.252Z,50.90
2023-05-05T06:08:06.581Z,51.10
2023-05-05T06:10:34.700Z,51.70
2023-05-05T06:13:02.837Z,50.90
2023-05-05T06:15:30.594Z,50.10
2023-05-05T06:17:58.526Z,50.90
2023-05-05T06:20:26.212Z,51.00
2023-05-05T06:22:54.213Z,52.00
2023-05-05T06:25:23.766Z,51.20
2023-05-05T06:27:51.465Z,51.20
2023-05-05T06:30:19.340Z,51.70
2023-05-05T06:32:47.310Z,51.80
2023-05-05T06:35:15.957Z,51.60
2023-05-05T06:37:44.557Z,51.40
2023-05-05T06:40:12.591Z,51.90
2023-05-05T06:42:40.858Z,52.70
2023-05-05T06:45:08.842Z,53.90
2023-05-05T06:47:37.324Z,53.70
2023-05-05T06:50:06.386Z,52.90
2023-05-05T06:52:35.156Z,52.70
2023-05-05T06:55:02.904Z,52.70
2023-05-05T06:57:30.899Z,52.30
2023-05-05T06:59:58.897Z,52.30
2023-05-05T07:02:27.018Z,52.10
2023-05-05T07:04:54.796Z,51.20
2023-05-05T07:07:22.723Z,52.20
2023-05-05T07:09:50.703Z,51.70
2023-05-05T07:12:18.344Z,49.60
2023-05-05T07:14:46.038Z,49.40
2023-05-05T07:17:13.889Z,48.60
2023-05-05T07:19:41.801Z,48.50
2023-05-05T07:22:09.918Z,48.70
2023-05-05T07:24:37.739Z,48.90
2023-05-05T07:27:05.509Z,50.50
2023-05-05T07:29:34.189Z,51.80
2023-05-05T07:32:02.075Z,51.50
2023-05-05T07:34:29.725Z,50.30
2023-05-05T07:36:57.295Z,49.50
2023-05-05T07:39:25.434Z,50.40
2023-05-05T07:41:53.085Z,49.80
2023-05-05T07:44:21.063Z,48.90
2023-05-05T07:46:49.215Z,47.90
2023-05-05T07:49:16.867Z,47.90
2023-05-05T07:51:44.644Z,49.60
2023-05-05T07:54:12.353Z,49.90
2023-05-05T07:56:40.166Z,50.30
2023-05-05T07:59:08.120Z,50.80
2023-05-05T08:01:36.059Z,50.90
2023-05-05T08:04:03.865Z,51.60
2023-05-05T08:06:31.803Z,52.30
2023-05-05T08:09:00.118Z,51.70
2023-05-05T08:11:29.576Z,52.20
2023-05-05T08:13:57.586Z,51.80
2023-05-05T08:16:25.432Z,52.00
2023-05-05T08:18:53.155Z,52.40
2023-05-05T08:21:21.116Z,52.80
2023-05-05T08:23:48.795Z,53.40
2023-05-05T08:26:16.582Z,52.90
2023-05-05T08:28:44.413Z,52.80
2023-05-05T08:31:12.084Z,53.40
2023-05-05T08:33:39.855Z,54.10
2023-05-05T08:36:07.829Z,52.50
2023-05-05T08:38:35.657Z,49.70
2023-05-05T08:41:03.732Z,49.80
2023-05-05T08:43:32.218Z,49.80
2023-05-05T08:45:59.997Z,48.70
2023-05-05T08:48:27.785Z,48.60
2023-05-05T08:50:56.702Z,48.40
2023-05-05T08:53:29.487Z,48.70
2023-05-05T08:55:57.206Z,48.00
2023-05-05T08:58:28.263Z,48.80
2023-05-05T09:00:56.890Z,48.10
2023-05-05T09:03:25.022Z,47.80
2023-05-05T09:05:52.949Z,48.90
2023-05-05T09:08:21.070Z,48.40
2023-05-05T09:10:48.941Z,47.90
2023-05-05T09:13:17.014Z,48.30
2023-05-05T09:15:45.153Z,48.50
2023-05-05T09:18:13.704Z,48.60
2023-05-05T09:20:41.578Z,48.60
2023-05-05T09:23:09.345Z,49.00
2023-05-05T09:25:37.618Z,49.60
2023-05-05T09:28:05.161Z,50.00
2023-05-05T09:30:34.000Z,50.00
2023-05-05T09:33:01.760Z,50.30
2023-05-05T09:35:29.513Z,50.30
2023-05-05T09:37:57.159Z,50.50
2023-05-05T09:40:25.184Z,50.40
2023-05-05T09:42:52.678Z,51.60
2023-05-05T09:45:20.416Z,51.80
2023-05-05T09:47:49.086Z,51.30
2023-05-05T09:50:17.591Z,52.50
2023-05-05T09:52:46.699Z,51.80
2023-05-05T09:55:15.718Z,52.60
2023-05-05T09:57:52.513Z,52.60
2023-05-05T10:00:20.561Z,52.50
2023-05-05T10:02:49.965Z,52.70
2023-05-05T10:05:18.337Z,52.10
2023-05-05T10:07:46.294Z,52.30
2023-05-05T10:10:14.005Z,54.30
2023-05-05T10:12:42.116Z,53.80
2023-05-05T10:15:11.009Z,55.00
2023-05-05T10:17:41.337Z,55.20
2023-05-05T10:20:11.820Z,56.10
2023-05-05T10:22:41.714Z,56.50
2023-05-05T10:25:09.482Z,57.20
2023-05-05T10:27:40.018Z,57.50
2023-05-05T10:30:11.437Z,57.90
2023-05-05T10:35:09.702Z,57.50
2023-05-05T10:37:38.307Z,59.00
2023-05-05T10:40:08.465Z,59.60
2023-05-05T10:42:41.283Z,60.10
2023-05-05T10:45:10.821Z,60.60
2023-05-05T10:47:38.905Z,58.70
2023-05-05T10:50:07.692Z,58.70
2023-05-05T10:52:37.728Z,57.10
2023-05-05T10:55:16.210Z,56.90
2023-05-05T10:57:43.956Z,57.90
2023-05-05T11:00:12.894Z,57.70
2023-05-05T11:02:42.435Z,58.00
2023-05-05T11:05:12.077Z,59.10
2023-05-05T11:07:40.954Z,58.50
2023-05-05T11:10:09.091Z,57.60
2023-05-05T11:12:38.836Z,57.90
2023-05-05T11:15:07.587Z,57.60
2023-05-05T11:17:37.891Z,57.90
2023-05-05T11:20:05.830Z,57.90
2023-05-05T11:22:34.847Z,57.80
2023-05-05T11:25:02.858Z,58.10
2023-05-05T11:27:30.421Z,57.90
2023-05-05T11:29:58.411Z,58.40
2023-05-05T11:32:26.631Z,58.20
2023-05-05T11:34:54.209Z,58.10
2023-05-05T11:37:21.801Z,57.90
2023-05-05T11:39:49.717Z,58.10
2023-05-05T11:42:17.403Z,57.90
2023-05-05T11:44:45.143Z,57.30
2023-05-05T11:47:13.109Z,57.00
2023-05-05T11:49:40.997Z,57.00
2023-05-05T11:52:08.769Z,57.00
2023-05-05T11:54:36.991Z,56.70
2023-05-05T11:57:24.411Z,56.80
2023-05-05T11:59:52.443Z,56.60
2023-05-05T12:02:20.112Z,56.40
2023-05-05T12:04:47.938Z,56.50
2023-05-05T12:07:15.927Z,56.50
2023-05-05T12:09:43.768Z,56.70
2023-05-05T12:12:11.636Z,56.70
2023-05-05T12:14:39.518Z,56.80
2023-05-05T12:17:08.504Z,57.10
2023-05-05T12:19:45.766Z,57.10
2023-05-05T12:22:13.855Z,57.40
2023-05-05T12:24:41.878Z,57.90
2023-05-05T12:27:10.147Z,57.90
2023-05-05T12:29:38.257Z,57.90
2023-05-05T12:32:06.019Z,57.80
2023-05-05T12:34:33.690Z,58.10
2023-05-05T12:37:01.414Z,57.70
2023-05-05T12:39:29.097Z,57.90
2023-05-05T12:41:56.788Z,58.00
2023-05-05T12:44:24.702Z,58.40
2023-05-05T12:46:52.360Z,58.60
2023-05-05T12:49:20.656Z,59.00
2023-05-05T12:51:49.330Z,58.80
2023-05-05T12:54:17.392Z,59.20
2023-05-05T12:56:45.530Z,59.10
2023-05-05T12:59:13.681Z,59.20
2023-05-05T13:01:41.398Z,59.50
2023-05-05T13:04:09.207Z,59.50
2023-05-05T13:06:37.361Z,59.70
2023-05-05T13:09:05.583Z,59.80
2023-05-05T13:11:38.061Z,60.50
2023-05-05T13:14:08.935Z,61.40
2023-05-05T13:16:36.572Z,61.40
2023-05-05T13:19:24.120Z,61.30
2023-05-05T13:21:51.837Z,61.70
2023-05-05T13:24:28.786Z,62.20
2023-05-05T13:27:06.510Z,63.00
2023-05-05T13:29:34.486Z,63.10
2023-05-05T13:32:02.244Z,63.50
2023-05-05T13:34:31.111Z,63.40
2023-05-05T13:36:58.971Z,64.40
2023-05-05T13:39:27.288Z,64.60
2023-05-05T13:41:54.988Z,65.70
2023-05-05T13:44:22.983Z,65.10
2023-05-05T13:46:52.219Z,65.40
2023-05-05T13:49:20.362Z,65.50
2023-05-05T13:51:48.411Z,65.20
2023-05-05T13:54:16.295Z,66.00
2023-05-05T13:56:44.188Z,65.90
2023-05-05T13:59:17.540Z,65.80
2023-05-05T14:01:45.395Z,66.40
2023-05-05T14:04:13.186Z,66.40
2023-05-05T14:06:41.292Z,66.50
2023-05-05T14:09:09.869Z,66.50
2023-05-05T14:11:37.892Z,66.80
2023-05-05T14:14:06.206Z,66.90
2023-05-05T14:16:34.351Z,67.00
2023-05-05T14:19:02.039Z,66.90
2023-05-05T14:21:30.031Z,67.20
2023-05-05T14:23:58.298Z,66.90
2023-05-05T14:26:26.260Z,67.70
2023-05-05T14:28:54.506Z,67.00
2023-05-05T14:31:23.169Z,67.00
2023-05-05T14:33:51.100Z,66.60
2023-05-05T14:36:18.802Z,67.00
2023-05-05T14:38:47.990Z,67.20
2023-05-05T14:41:15.842Z,66.60
2023-05-05T14:43:43.724Z,67.00
2023-05-05T14:46:11.763Z,66.80
2023-05-05T14:48:39.611Z,66.60
2023-05-05T14:51:07.355Z,66.60
2023-05-05T14:53:35.192Z,65.60
2023-05-05T14:56:02.977Z,65.50
2023-05-05T14:58:31.191Z,65.50
2023-05-05T15:01:01.163Z,65.40
2023-05-05T15:03:29.073Z,65.80
2023-05-05T15:06:08.019Z,65.90
2023-05-05T15:08:36.035Z,66.20
2023-05-05T15:11:04.709Z,66.30
2023-05-05T15:13:32.884Z,67.10
2023-05-05T15:16:00.922Z,66.60
2023-05-05T15:18:28.620Z,66.50
2023-05-05T15:20:56.544Z,67.30
2023-05-05T15:23:24.217Z,67.30
2023-05-05T15:25:52.092Z,67.30
2023-05-05T15:28:21.125Z,67.40
2023-05-05T15:30:49.221Z,67.00
2023-05-05T15:33:17.110Z,66.80
2023-05-05T15:35:44.945Z,67.30
2023-05-05T15:38:13.154Z,67.40
2023-05-05T15:40:40.909Z,66.90
2023-05-05T15:43:08.802Z,67.10
2023-05-05T15:45:36.761Z,66.90
2023-05-05T15:48:05.015Z,67.20
2023-05-05T15:50:33.204Z,67.60
2023-05-05T15:53:01.604Z,67.50
2023-05-05T15:55:29.658Z,67.60
2023-05-05T15:57:57.452Z,67.60
2023-05-05T16:00:25.547Z,67.60
2023-05-05T16:02:53.395Z,68.00
2023-05-05T16:05:22.820Z,67.90
2023-05-05T16:07:51.064Z,67.90
2023-05-05T16:10:18.776Z,67.70
2023-05-05T16:12:46.545Z,67.60
2023-05-05T16:15:14.285Z,67.60
2023-05-05T16:17:42.393Z,67.70
2023-05-05T16:20:11.463Z,68.10
2023-05-05T16:22:40.821Z,68.40
2023-05-05T16:25:09.304Z,68.40
2023-05-05T16:27:37.339Z,68.40
2023-05-05T16:30:06.263Z,68.20
2023-05-05T16:32:34.107Z,68.10
2023-05-05T16:35:02.634Z,68.40
2023-05-05T16:37:30.854Z,68.50
2023-05-05T16:39:58.856Z,69.20
2023-05-05T16:42:26.541Z,68.60
2023-05-05T16:44:54.775Z,68.70
2023-05-05T16:47:22.703Z,68.70
2023-05-05T16:49:50.644Z,68.70
2023-05-05T16:52:19.179Z,68.90
2023-05-05T16:54:46.985Z,68.90
2023-05-05T16:57:14.965Z,68.90
2023-05-05T16:59:43.266Z,68.80
2023-05-05T17:02:11.464Z,68.90
2023-05-05T17:04:39.440Z,69.00
2023-05-05T17:07:07.881Z,69.00
2023-05-05T17:09:36.006Z,69.40
2023-05-05T17:12:04.430Z,69.70
2023-05-05T17:14:34.046Z,69.80
2023-05-05T17:17:02.545Z,69.60
2023-05-05T17:19:31.528Z,69.20
2023-05-05T17:21:59.661Z,69.40
2023-05-05T17:24:27.545Z,69.60
2023-05-05T17:26:55.264Z,69.40
2023-05-05T17:29:23.912Z,69.20
2023-05-05T17:31:51.849Z,69.40
2023-05-05T17:34:20.834Z,69.20
2023-05-05T17:36:48.953Z,69.40
2023-05-05T17:39:16.935Z,69.30
2023-05-05T17:41:45.087Z,69.20
2023-05-05T17:44:13.416Z,69.30
2023-05-05T17:46:41.510Z,69.30
2023-05-05T17:49:09.928Z,69.30
2023-05-05T17:51:38.875Z,69.00
2023-05-05T17:54:06.926Z,69.10
2023-05-05T17:56:35.090Z,68.70
2023-05-05T17:59:03.048Z,68.90
2023-05-05T18:01:31.713Z,69.00
2023-05-05T18:03:59.452Z,69.20
2023-05-05T18:06:27.760Z,69.40
2023-05-05T18:08:56.060Z,69.20
2023-05-05T18:11:24.334Z,69.40
2023-05-05T18:13:52.595Z,69.30
2023-05-05T18:16:20.690Z,69.30
2023-05-05T18:18:48.555Z,69.30
2023-05-05T18:21:16.626Z,69.60
2023-05-05T18:23:44.308Z,70.00
2023-05-05T18:26:12.077Z,69.80
2023-05-05T18:28:39.876Z,70.10
2023-05-05T18:31:07.639Z,70.50
2023-05-05T18:33:35.340Z,70.50
2023-05-05T18:36:03.682Z,70.30
2023-05-05T18:38:32.733Z,70.00
2023-05-05T18:41:00.521Z,70.30
2023-05-05T18:43:28.491Z,70.10
2023-05-05T18:45:56.265Z,70.20
2023-05-05T18:48:24.575Z,70.50
2023-05-05T18:50:52.666Z,70.70
2023-05-05T18:53:20.408Z,71.10
2023-05-05T18:55:48.528Z,70.50
2023-05-05T18:58:16.552Z,70.70
2023-05-05T19:00:44.339Z,70.30
2023-05-05T19:03:12.791Z,70.40
2023-05-05T19:05:49.581Z,70.50
2023-05-05T19:08:17.402Z,70.60
2023-05-05T19:10:45.301Z,70.60
2023-05-05T19:13:17.764Z,70.60
2023-05-05T19:15:50.123Z,70.80
2023-05-05T19:18:18.357Z,71.00
2023-05-05T19:20:45.958Z,71.00
2023-05-05T19:23:15.694Z,71.40
2023-05-05T19:25:43.767Z,71.40
2023-05-05T19:28:11.510Z,71.50
2023-05-05T19:30:39.148Z,71.70
2023-05-05T19:33:08.888Z,71.60
2023-05-05T19:35:41.107Z,71.80
2023-05-05T19:38:09.524Z,72.00
2023-05-05T19:40:38.371Z,72.30
2023-05-05T19:43:06.269Z,72.20
2023-05-05T19:45:36.037Z,72.20
2023-05-05T19:48:04.469Z,72.30
2023-05-05T19:50:32.264Z,71.80
2023-05-05T19:53:00.682Z,71.80
2023-05-05T19:55:32.502Z,71.40
2023-05-05T19:58:00.774Z,71.60
2023-05-05T20:00:29.014Z,71.70
2023-05-05T20:03:01.030Z,72.00
2023-05-05T20:05:29.283Z,72.40
2023-05-05T20:08:05.927Z,73.50
2023-05-05T20:10:34.042Z,73.70
2023-05-05T20:13:01.879Z,73.50
2023-05-05T20:15:31.300Z,73.50
2023-05-05T20:18:08.306Z,73.00
2023-05-05T20:20:39.058Z,73.20
2023-05-05T20:23:22.968Z,73.20
2023-05-05T20:25:52.134Z,72.90
2023-05-05T20:28:22.247Z,72.70
2023-05-05T20:30:52.701Z,72.60
2023-05-05T20:33:23.687Z,72.70
2023-05-05T20:35:56.271Z,72.70
2023-05-05T20:38:24.897Z,72.80
2023-05-05T20:41:00.370Z,73.00
2023-05-05T20:43:31.514Z,73.20
2023-05-05T20:46:00.784Z,73.10
2023-05-05T20:51:14.512Z,73.10
2023-05-05T20:53:43.711Z,73.10
2023-05-05T20:56:14.428Z,73.10
2023-05-05T20:58:48.511Z,72.70
2023-05-05T21:01:17.809Z,72.80
2023-05-05T21:03:51.854Z,73.00
2023-05-05T21:06:39.292Z,72.80
2023-05-05T21:09:18.971Z,73.00
2023-05-05T21:12:05.415Z,73.50
2023-05-05T21:14:34.441Z,74.00
2023-05-05T21:17:08.819Z,73.80
2023-05-05T21:19:38.991Z,74.00
2023-05-05T21:22:20.791Z,74.50
2023-05-05T21:24:52.529Z,74.00
2023-05-05T21:27:40.287Z,73.80
2023-05-05T21:30:10.674Z,74.40
2023-05-05T21:32:43.718Z,74.40
2023-05-05T21:35:20.150Z,74.40
2023-05-05T21:37:48.488Z,74.60
2023-05-05T21:40:16.688Z,74.60
2023-05-05T21:42:45.470Z,75.00
2023-05-05T21:45:16.208Z,74.70
2023-05-05T21:47:44.354Z,75.10
2023-05-05T21:50:12.645Z,74.90
2023-05-05T21:52:45.550Z,75.10
2023-05-05T21:55:13.849Z,75.10
2023-05-05T21:57:42.492Z,75.10
2023-05-05T22:00:11.701Z,75.30
2023-05-05T22:02:49.648Z,75.40
2023-05-05T22:05:18.579Z,75.30
2023-05-05T22:07:46.267Z,75.70
2023-05-05T22:10:18.632Z,76.50
2023-05-05T22:12:49.648Z,76.40
2023-05-05T22:15:20.061Z,76.80
2023-05-05T22:17:48.309Z,76.90
2023-05-05T22:20:18.065Z,77.20
2023-05-05T22:22:56.844Z,78.10
2023-05-05T22:25:27.981Z,78.00
2023-05-05T22:27:58.754Z,77.00
2023-05-05T22:30:27.206Z,77.50
2023-05-05T22:32:55.410Z,77.80
2023-05-05T22:35:23.403Z,79.20
2023-05-05T22:37:51.851Z,78.70
2023-05-05T22:40:19.682Z,78.50
2023-05-05T22:42:49.067Z,78.50
2023-05-05T22:45:17.215Z,78.20
2023-05-05T22:47:44.870Z,78.50
2023-05-05T22:50:13.908Z,79.00
2023-05-05T22:52:42.348Z,78.70
2023-05-05T22:55:10.456Z,78.60
2023-05-05T22:57:39.558Z,79.20
2023-05-05T23:00:07.840Z,79.00
2023-05-05T23:02:37.657Z,79.80
2023-05-05T23:05:06.714Z,79.80
2023-05-05T23:07:38.081Z,79.80
2023-05-05T23:10:07.968Z,79.90
2023-05-05T23:12:37.074Z,79.90
2023-05-05T23:15:08.240Z,80.00
2023-05-05T23:17:38.039Z,79.70
2023-05-05T23:20:07.741Z,79.50
2023-05-05T23:22:37.433Z,79.50
2023-05-05T23:25:09.077Z,79.80
2023-05-05T23:27:38.443Z,79.80
2023-05-05T23:30:06.695Z,80.20
2023-05-05T23:32:36.740Z,80.30
2023-05-05T23:35:04.657Z,80.50
2023-05-05T23:37:33.416Z,80.70
2023-05-05T23:40:01.599Z,80.80
2023-05-05T23:42:29.854Z,81.10
2023-05-05T23:44:58.021Z,80.60
2023-05-05T23:47:26.140Z,81.00
2023-05-05T23:49:54.259Z,80.60
2023-05-05T23:52:23.385Z,81.20
2023-05-05T23:54:52.864Z,80.90
2023-05-05T23:57:20.495Z,81.20
2023-05-05T23:59:52.100Z,81.00
